Time;durP1;ratioP1;P1;durP2;ratioP2;P2;SDS_P1;SDS_P2;PMS_P1;PMS_P2;Temp;Humidity;BMP_temperature;BMP_pressure;BME280_temperature;BME280_humidity;BME280_pressure;Samples;Min_cycle;Max_cycle;Signal;HPM_P1;HPM_P2
2023/08/20 00:02:09;;;;;;;6.38;5.78;;;26.10;65.50;;;;;;4999461;28;20226;-80
2023/08/20 00:04:36;;;;;;;7.13;5.88;;;26.10;66.30;;;;;;4999128;28;20204;-80
2023/08/20 00:07:04;;;;;;;6.82;6.18;;;26.00;65.40;;;;;;4998386;28;20191;-80
2023/08/20 00:09:32;;;;;;;6.68;5.97;;;26.00;65.50;;;;;;4997175;28;20309;-80
2023/08/20 00:12:02;;;;;;;7.15;6.10;;;26.00;65.40;;;;;;4997214;28;20266;-80
2023/08/20 00:14:56;;;;;;;6.15;5.65;;;26.00;65.40;;;;;;4997505;28;20694;-80
2023/08/20 00:17:26;;;;;;;6.22;5.47;;;26.00;65.50;;;;;;4998624;28;20196;-80
2023/08/20 00:19:54;;;;;;;6.63;6.03;;;26.00;65.50;;;;;;4997351;28;20250;-80
2023/08/20 00:22:22;;;;;;;7.13;6.20;;;26.00;65.60;;;;;;4997361;28;20259;-80
2023/08/20 00:24:50;;;;;;;6.22;5.65;;;26.00;65.60;;;;;;4997340;28;20204;-80
2023/08/20 00:27:18;;;;;;;7.68;6.53;;;26.00;65.60;;;;;;4997582;28;20204;-79
2023/08/20 00:29:45;;;;;;;6.97;6.28;;;25.90;65.50;;;;;;4997657;28;20196;-80
2023/08/20 00:32:13;;;;;;;6.80;6.20;;;25.90;65.60;;;;;;4997584;28;20204;-79
2023/08/20 00:34:41;;;;;;;7.18;6.47;;;25.90;65.50;;;;;;4997195;28;20246;-79
2023/08/20 00:37:08;;;;;;;6.97;6.13;;;25.90;65.60;;;;;;4997954;28;20227;-79
2023/08/20 00:39:35;;;;;;;6.75;6.13;;;25.90;65.50;;;;;;4997730;28;20196;-79
2023/08/20 00:42:02;;;;;;;6.35;5.80;;;25.90;65.60;;;;;;4997235;28;20695;-80
2023/08/20 00:44:31;;;;;;;7.53;6.45;;;25.90;65.70;;;;;;4996744;28;20625;-80
2023/08/20 00:47:00;;;;;;;8.85;6.70;;;25.90;65.80;;;;;;4997214;28;20236;-80
2023/08/20 00:49:27;;;;;;;6.80;6.10;;;25.90;65.60;;;;;;4997315;28;20239;-80
2023/08/20 00:51:54;;;;;;;6.95;6.35;;;25.90;65.70;;;;;;4997894;28;20609;-79
2023/08/20 00:54:21;;;;;;;7.05;6.45;;;25.90;65.70;;;;;;4996943;28;20296;-80
2023/08/20 00:56:48;;;;;;;6.70;6.00;;;25.90;65.80;;;;;;4996819;28;20192;-80
2023/08/20 00:59:15;;;;;;;6.72;6.20;;;25.90;65.80;;;;;;4997121;28;20207;-80
2023/08/20 01:01:44;;;;;;;7.05;6.30;;;25.90;65.80;;;;;;4999184;28;20224;-80
2023/08/20 01:04:11;;;;;;;6.80;6.20;;;25.90;65.80;;;;;;5000862;28;20200;-80
2023/08/20 01:06:44;;;;;;;6.85;6.25;;;25.80;65.70;;;;;;5003424;28;20223;-80
2023/08/20 01:09:15;;;;;;;7.32;6.63;;;25.90;65.80;;;;;;5000609;28;20215;-80
2023/08/20 01:11:45;;;;;;;6.90;6.40;;;25.80;65.70;;;;;;4985094;28;20262;-80
2023/08/20 01:14:17;;;;;;;6.60;6.05;;;25.80;65.80;;;;;;5000976;28;20684;-80
2023/08/20 01:16:49;;;;;;;7.13;6.22;;;25.80;65.70;;;;;;5000509;28;20612;-79
2023/08/20 01:19:17;;;;;;;7.38;6.68;;;25.80;65.80;;;;;;5000817;28;20291;-79
2023/08/20 01:21:48;;;;;;;8.00;6.72;;;25.80;65.80;;;;;;5000357;28;20239;-79
2023/08/20 01:24:21;;;;;;;6.72;6.03;;;25.80;65.90;;;;;;5017913;28;20220;-79
2023/08/20 01:26:55;;;;;;;6.60;6.00;;;25.80;65.90;;;;;;5000243;28;20199;-79
2023/08/20 01:29:24;;;;;;;7.22;6.55;;;25.80;65.90;;;;;;5000168;28;20192;-79
2023/08/20 01:31:51;;;;;;;6.65;6.18;;;25.70;65.80;;;;;;5000258;28;20216;-79
2023/08/20 01:34:19;;;;;;;6.50;6.00;;;25.80;65.90;;;;;;5000032;28;20207;-80
2023/08/20 01:36:46;;;;;;;6.63;6.00;;;25.70;65.90;;;;;;5017990;28;20188;-80
2023/08/20 01:39:14;;;;;;;6.85;6.25;;;25.70;65.90;;;;;;5000392;28;20270;-80
2023/08/20 01:41:43;;;;;;;6.88;6.15;;;25.70;65.90;;;;;;4984398;28;20220;-79
2023/08/20 01:44:10;;;;;;;7.65;6.95;;;25.70;66.00;;;;;;5000179;28;20207;-80
2023/08/20 01:46:39;;;;;;;6.85;6.25;;;25.80;66.10;;;;;;4999770;28;20227;-79
2023/08/20 01:49:06;;;;;;;7.18;6.45;;;25.60;66.00;;;;;;4999916;28;20254;-79
2023/08/20 01:51:34;;;;;;;7.00;6.40;;;25.70;66.10;;;;;;4999705;28;20741;-80
2023/08/20 01:54:01;;;;;;;7.55;6.95;;;25.70;66.10;;;;;;4999645;28;20670;-80
2023/08/20 01:56:28;;;;;;;7.30;6.70;;;25.60;66.00;;;;;;5000152;28;20204;-79
2023/08/20 01:58:55;;;;;;;7.45;6.75;;;25.70;66.10;;;;;;5000168;28;20204;-79
2023/08/20 02:01:22;;;;;;;8.07;7.00;;;25.60;66.00;;;;;;4983266;28;20232;-79
2023/08/20 02:03:51;;;;;;;7.32;6.72;;;25.60;66.10;;;;;;4999505;28;20192;-79
2023/08/20 02:06:18;;;;;;;6.68;6.13;;;25.60;66.10;;;;;;4999539;28;20293;-79
2023/08/20 02:08:47;;;;;;;8.68;6.65;;;25.60;66.20;;;;;;4999008;28;20223;-80
2023/08/20 02:11:14;;;;;;;7.45;6.72;;;25.60;66.10;;;;;;4998997;28;20224;-80
2023/08/20 02:13:41;;;;;;;7.05;6.45;;;25.60;66.10;;;;;;4998102;28;20254;-80
2023/08/20 02:16:08;;;;;;;7.68;6.80;;;25.60;66.10;;;;;;4982965;28;20196;-80
2023/08/20 02:18:35;;;;;;;7.43;6.82;;;25.60;66.10;;;;;;5016393;28;20666;-79
2023/08/20 02:21:04;;;;;;;7.47;6.65;;;25.60;66.10;;;;;;4998683;28;20220;-79
2023/08/20 02:23:31;;;;;;;7.13;6.53;;;25.60;66.10;;;;;;4999404;28;20220;-80
2023/08/20 02:25:58;;;;;;;7.50;6.80;;;25.60;66.00;;;;;;4998862;28;20204;-80
2023/08/20 02:28:25;;;;;;;7.70;7.00;;;25.60;66.10;;;;;;4999216;28;20643;-80
2023/08/20 02:30:52;;;;;;;8.60;6.80;;;25.60;66.10;;;;;;4998591;28;20212;-80
2023/08/20 02:33:19;;;;;;;6.82;6.28;;;25.60;66.10;;;;;;4998235;28;20606;-80
2023/08/20 02:35:46;;;;;;;6.97;6.38;;;25.60;66.10;;;;;;4998854;28;20192;-79
2023/08/20 02:38:24;;;;;;;7.22;6.63;;;25.60;66.10;;;;;;4999725;28;20212;-80
2023/08/20 02:40:53;;;;;;;6.80;6.10;;;25.50;66.00;;;;;;4998677;28;20239;-80
2023/08/20 02:43:20;;;;;;;6.93;6.32;;;25.50;65.90;;;;;;4982071;28;20270;-80
2023/08/20 02:45:47;;;;;;;7.40;6.75;;;25.50;66.00;;;;;;4998158;28;20200;-80
2023/08/20 02:48:15;;;;;;;7.07;6.47;;;25.50;65.90;;;;;;4998099;28;20212;-79
2023/08/20 02:50:41;;;;;;;7.70;7.00;;;25.50;66.00;;;;;;4997998;28;20707;-79
2023/08/20 02:53:08;;;;;;;7.20;6.50;;;25.50;65.90;;;;;;4998202;28;20193;-79
2023/08/20 02:55:36;;;;;;;7.68;6.82;;;25.40;65.80;;;;;;4998185;28;20220;-79
2023/08/20 02:58:06;;;;;;;7.00;6.28;;;25.50;65.90;;;;;;4998231;28;20202;-80
2023/08/20 03:00:33;;;;;;;7.55;6.85;;;25.50;66.00;;;;;;4999354;28;20264;-79
2023/08/20 03:03:02;;;;;;;7.30;6.70;;;25.40;65.80;;;;;;5001306;28;20219;-79
2023/08/20 03:05:29;;;;;;;7.35;6.70;;;25.40;65.90;;;;;;4999032;28;20291;-79
2023/08/20 03:07:56;;;;;;;7.03;6.32;;;25.40;65.80;;;;;;4998269;28;20232;-79
2023/08/20 03:10:23;;;;;;;7.35;6.75;;;25.40;65.70;;;;;;4998400;28;20698;-79
2023/08/20 03:12:52;;;;;;;6.88;6.28;;;25.40;65.80;;;;;;4999654;28;20202;-79
2023/08/20 03:15:19;;;;;;;7.40;6.70;;;25.40;65.90;;;;;;4998425;28;20228;-79
2023/08/20 03:17:46;;;;;;;7.28;6.57;;;25.40;65.80;;;;;;4998833;28;20200;-79
2023/08/20 03:20:13;;;;;;;7.68;6.95;;;25.40;65.90;;;;;;4999154;28;20234;-80
2023/08/20 03:22:40;;;;;;;7.03;6.43;;;25.40;65.70;;;;;;4998537;28;20679;-79
2023/08/20 03:25:08;;;;;;;7.50;6.80;;;25.40;65.70;;;;;;4998256;28;20254;-80
2023/08/20 03:27:35;;;;;;;6.72;6.10;;;25.40;65.70;;;;;;4998859;28;20224;-79
2023/08/20 03:30:04;;;;;;;8.02;7.28;;;25.40;65.60;;;;;;4998794;28;20192;-79
2023/08/20 03:32:32;;;;;;;7.70;7.10;;;25.40;65.50;;;;;;4998205;28;20200;-80
2023/08/20 03:34:59;;;;;;;6.97;6.38;;;25.40;65.50;;;;;;4998128;28;20196;-79
2023/08/20 03:37:26;;;;;;;7.43;6.72;;;25.40;65.20;;;;;;4998157;28;20231;-80
2023/08/20 03:39:53;;;;;;;7.43;6.80;;;25.40;65.10;;;;;;4982292;28;20228;-79
2023/08/20 03:42:21;;;;;;;8.10;7.30;;;25.40;64.90;;;;;;4997890;28;20225;-79
2023/08/20 03:44:48;;;;;;;7.22;6.72;;;25.50;65.80;;;;;;5037757;23;20330;-81
2023/08/20 03:47:20;;;;;;;7.65;7.03;;;25.50;65.00;;;;;;4998091;28;20196;-82
2023/08/20 03:49:47;;;;;;;7.40;6.78;;;25.50;64.80;;;;;;4998158;28;20208;-82
2023/08/20 03:52:14;;;;;;;7.40;6.70;;;25.50;64.70;;;;;;4998474;28;20244;-82
2023/08/20 03:54:43;;;;;;;7.65;6.50;;;25.50;64.60;;;;;;4982125;28;20239;-82
2023/08/20 03:57:10;;;;;;;7.65;6.93;;;25.50;64.60;;;;;;4997882;28;20215;-82
2023/08/20 03:59:37;;;;;;;8.50;7.13;;;25.50;64.60;;;;;;4981805;28;20200;-82
2023/08/20 04:02:04;;;;;;;7.15;6.43;;;25.50;64.40;;;;;;4997604;28;20279;-82
2023/08/20 04:04:33;;;;;;;9.32;7.68;;;25.50;64.40;;;;;;4997682;28;20196;-82
2023/08/20 04:07:00;;;;;;;7.28;6.63;;;25.50;64.30;;;;;;4997794;28;20222;-82
2023/08/20 04:09:27;;;;;;;7.95;7.22;;;25.50;64.30;;;;;;4998178;28;20199;-82
2023/08/20 04:11:54;;;;;;;7.15;6.50;;;25.50;64.30;;;;;;4997735;28;20220;-82
2023/08/20 04:14:21;;;;;;;7.65;7.03;;;25.50;64.30;;;;;;4998101;28;20246;-82
2023/08/20 04:16:48;;;;;;;8.55;7.40;;;25.50;64.30;;;;;;4997106;28;20223;-82
2023/08/20 04:19:15;;;;;;;7.63;6.88;;;25.50;64.30;;;;;;4997550;28;20211;-82
2023/08/20 04:21:43;;;;;;;8.00;6.97;;;25.50;64.20;;;;;;4997652;28;20227;-82
2023/08/20 04:24:11;;;;;;;7.22;6.53;;;25.50;64.30;;;;;;4998359;28;20222;-82
2023/08/20 04:26:40;;;;;;;7.53;6.82;;;25.50;64.20;;;;;;4997780;28;20200;-82
2023/08/20 04:29:07;;;;;;;8.70;7.82;;;25.50;64.10;;;;;;4997212;28;20217;-82
2023/08/20 04:31:34;;;;;;;7.60;6.82;;;25.50;64.10;;;;;;4996859;28;20228;-82
2023/08/20 04:34:06;;;;;;;7.43;6.65;;;25.50;64.20;;;;;;4997696;28;20227;-82
2023/08/20 04:36:45;;;;;;;7.20;6.68;;;25.40;64.00;;;;;;4999903;28;20231;-82
2023/08/20 04:39:12;;;;;;;8.50;7.25;;;25.40;64.10;;;;;;5001007;28;20210;-81
2023/08/20 04:41:45;;;;;;;7.47;6.72;;;25.50;64.10;;;;;;5001688;28;20226;-82
2023/08/20 04:44:16;;;;;;;7.55;6.95;;;25.40;63.90;;;;;;5000761;28;20207;-81
2023/08/20 04:46:43;;;;;;;7.78;6.97;;;25.50;64.00;;;;;;5001410;28;20283;-82
2023/08/20 04:49:11;;;;;;;7.60;6.90;;;25.40;63.90;;;;;;5001065;28;20192;-82
2023/08/20 04:51:39;;;;;;;7.90;7.30;;;25.40;63.80;;;;;;5000694;28;20220;-82
2023/08/20 04:54:07;;;;;;;7.72;6.90;;;25.40;63.90;;;;;;5000608;28;20211;-82
2023/08/20 04:56:34;;;;;;;7.90;7.10;;;25.50;63.90;;;;;;5000826;28;20223;-83
2023/08/20 04:59:02;;;;;;;7.03;6.38;;;25.50;63.90;;;;;;5000952;28;20283;-83
2023/08/20 05:02:04;;;;;;;7.22;6.60;;;25.50;63.90;;;;;;4938344;29;20776;-83
2023/08/20 05:04:41;;;;;;;7.70;7.10;;;25.50;63.90;;;;;;4992880;28;20199;-82
2023/08/20 05:07:09;;;;;;;8.43;7.35;;;25.40;63.80;;;;;;5000541;28;20250;-83
2023/08/20 05:09:37;;;;;;;7.45;6.75;;;25.50;63.80;;;;;;5011407;28;20192;-82
2023/08/20 05:12:06;;;;;;;7.70;7.10;;;25.50;63.70;;;;;;5016883;28;20549;-83
2023/08/20 05:14:34;;;;;;;7.10;6.50;;;25.50;63.70;;;;;;5001305;28;20200;-83
2023/08/20 05:17:02;;;;;;;7.65;6.95;;;25.60;63.80;;;;;;4984995;28;20196;-83
2023/08/20 05:19:29;;;;;;;8.23;7.43;;;25.60;63.90;;;;;;5000891;28;20191;-83
2023/08/20 05:21:58;;;;;;;7.55;6.75;;;25.60;63.90;;;;;;5000873;28;20229;-83
2023/08/20 05:24:26;;;;;;;7.20;6.60;;;25.60;63.70;;;;;;4984715;28;20662;-83
2023/08/20 05:27:09;;;;;;;8.65;7.20;;;25.70;63.70;;;;;;5000770;28;20277;-83
2023/08/20 05:29:37;;;;;;;8.13;7.43;;;25.70;63.80;;;;;;5002064;28;20242;-83
2023/08/20 05:32:04;;;;;;;8.32;7.32;;;25.70;63.80;;;;;;5000367;28;20698;-83
2023/08/20 05:34:31;;;;;;;8.27;7.47;;;25.80;63.70;;;;;;5000167;28;20200;-83
2023/08/20 05:36:58;;;;;;;8.07;7.28;;;25.90;63.50;;;;;;5016866;28;20196;-83
2023/08/20 05:39:26;;;;;;;8.07;7.28;;;26.00;63.50;;;;;;5000305;28;20667;-83
2023/08/20 05:41:53;;;;;;;8.48;7.38;;;26.00;63.30;;;;;;4999493;28;20220;-82
2023/08/20 05:44:22;;;;;;;8.45;7.60;;;26.10;63.10;;;;;;4999961;28;20224;-83
2023/08/20 05:46:50;;;;;;;7.50;6.88;;;26.10;62.80;;;;;;4999737;28;20199;-83
2023/08/20 05:49:18;;;;;;;7.60;6.90;;;26.20;62.70;;;;;;4984494;28;20210;-83
2023/08/20 05:51:46;;;;;;;7.38;6.78;;;26.30;62.30;;;;;;4999519;28;20224;-83
2023/08/20 05:54:13;;;;;;;7.90;7.07;;;26.40;62.20;;;;;;4999960;28;20214;-83
2023/08/20 05:56:40;;;;;;;8.45;6.60;;;26.50;62.10;;;;;;4999520;28;20200;-82
2023/08/20 05:59:07;;;;;;;7.40;6.70;;;26.50;61.90;;;;;;5001198;28;20211;-82
2023/08/20 06:01:35;;;;;;;7.93;7.13;;;26.60;62.50;;;;;;5001448;28;20270;-82
2023/08/20 06:04:02;;;;;;;8.27;7.47;;;26.70;61.70;;;;;;5005228;28;20216;-83
2023/08/20 06:06:29;;;;;;;7.70;7.00;;;26.70;61.50;;;;;;5021152;28;20211;-83
2023/08/20 06:08:56;;;;;;;8.60;7.13;;;26.80;61.70;;;;;;5022234;28;20176;-83
2023/08/20 06:11:23;;;;;;;7.35;6.75;;;26.80;61.70;;;;;;5005010;28;20216;-83
2023/08/20 06:13:50;;;;;;;7.47;6.88;;;26.90;61.40;;;;;;5000419;28;20199;-83
2023/08/20 06:16:17;;;;;;;7.70;7.00;;;27.00;61.30;;;;;;5009280;28;20200;-83
2023/08/20 06:18:46;;;;;;;7.95;7.20;;;27.00;60.80;;;;;;5019428;28;20196;-83
2023/08/20 06:21:13;;;;;;;7.80;7.10;;;27.20;60.90;;;;;;5021820;28;20246;-82
2023/08/20 06:23:40;;;;;;;7.90;7.20;;;27.20;60.70;;;;;;5009258;28;20212;-82
2023/08/20 06:26:07;;;;;;;8.15;7.38;;;27.20;60.40;;;;;;5005997;28;20282;-82
2023/08/20 06:28:34;;;;;;;8.57;7.63;;;27.20;60.00;;;;;;4988528;28;20304;-83
2023/08/20 06:31:01;;;;;;;8.70;7.57;;;27.30;60.00;;;;;;5004329;28;20234;-82
2023/08/20 06:33:28;;;;;;;9.73;7.43;;;27.40;60.00;;;;;;5004044;28;20287;-83
2023/08/20 06:35:57;;;;;;;8.77;7.45;;;27.50;59.90;;;;;;5003794;28;20207;-83
2023/08/20 06:38:23;;;;;;;8.75;7.85;;;27.60;59.60;;;;;;5003941;28;20204;-83
2023/08/20 06:40:51;;;;;;;8.55;7.38;;;27.60;59.60;;;;;;4998749;28;20220;-83
2023/08/20 06:43:18;;;;;;;8.93;8.02;;;27.60;59.30;;;;;;4999672;28;20766;-82
2023/08/20 06:45:45;;;;;;;8.93;7.95;;;27.70;59.40;;;;;;4983170;28;20254;-83
2023/08/20 06:48:12;;;;;;;10.00;7.90;;;27.70;59.50;;;;;;4984632;28;20662;-82
2023/08/20 06:50:39;;;;;;;7.70;6.90;;;27.60;59.40;;;;;;5001525;28;20622;-83
2023/08/20 06:53:07;;;;;;;8.40;7.70;;;27.70;59.30;;;;;;5000831;28;20203;-83
2023/08/20 06:55:36;;;;;;;8.73;7.53;;;27.80;59.30;;;;;;4999991;28;20196;-83
2023/08/20 06:58:03;;;;;;;8.50;7.50;;;27.80;59.10;;;;;;4999470;28;20254;-82
2023/08/20 07:00:30;;;;;;;8.45;7.20;;;27.80;59.20;;;;;;5000408;28;20547;-82
2023/08/20 07:02:57;;;;;;;10.02;8.20;;;27.90;59.20;;;;;;4999210;28;20219;-81
2023/08/20 07:05:24;;;;;;;8.63;7.57;;;27.80;59.80;;;;;;4998932;28;20211;-82
2023/08/20 07:07:51;;;;;;;9.25;8.30;;;27.90;60.00;;;;;;4998855;28;20207;-82
2023/08/20 07:10:19;;;;;;;10.80;9.00;;;27.90;60.70;;;;;;4998364;28;20224;-82
2023/08/20 07:12:48;;;;;;;9.75;8.73;;;28.10;60.70;;;;;;5002466;28;20196;-81
2023/08/20 07:15:15;;;;;;;10.90;8.57;;;28.00;61.00;;;;;;5003556;28;20302;-82
2023/08/20 07:17:42;;;;;;;9.48;8.68;;;28.00;61.40;;;;;;5003270;28;20230;-82
2023/08/20 07:20:09;;;;;;;10.48;9.48;;;28.10;61.40;;;;;;5002472;28;20192;-82
2023/08/20 07:22:36;;;;;;;10.50;9.52;;;28.10;61.60;;;;;;5003028;28;20207;-82
2023/08/20 07:25:04;;;;;;;9.50;8.70;;;28.10;61.60;;;;;;5001433;28;20200;-82
2023/08/20 07:27:32;;;;;;;9.70;8.70;;;28.20;61.20;;;;;;5000621;28;20601;-82
2023/08/20 07:30:00;;;;;;;9.60;8.63;;;28.20;60.90;;;;;;5000419;28;20215;-82
2023/08/20 07:32:26;;;;;;;9.80;8.65;;;28.30;60.20;;;;;;5000662;28;20291;-81
2023/08/20 07:34:53;;;;;;;9.95;8.85;;;28.40;59.80;;;;;;5000489;28;20188;-81
2023/08/20 07:37:20;;;;;;;9.88;8.90;;;28.40;60.30;;;;;;4984270;28;20249;-82
2023/08/20 07:39:47;;;;;;;9.45;8.55;;;28.40;60.80;;;;;;4999368;28;20621;-83
2023/08/20 07:42:14;;;;;;;10.05;8.95;;;28.40;60.00;;;;;;5000931;28;20219;-82
2023/08/20 07:44:43;;;;;;;9.43;8.38;;;28.50;59.60;;;;;;5001163;28;20220;-82
2023/08/20 07:47:10;;;;;;;9.88;8.98;;;28.70;59.30;;;;;;4999274;28;20625;-81
2023/08/20 07:49:36;;;;;;;9.63;8.65;;;28.80;59.50;;;;;;5001624;28;20211;-80
2023/08/20 07:52:04;;;;;;;9.35;8.63;;;28.90;58.80;;;;;;4999369;28;20705;-81
2023/08/20 07:54:31;;;;;;;9.18;8.00;;;28.90;58.70;;;;;;5001775;28;20192;-81
2023/08/20 07:56:58;;;;;;;8.75;7.95;;;29.00;58.40;;;;;;5001299;28;20223;-81
2023/08/20 07:59:25;;;;;;;9.15;8.07;;;29.10;58.00;;;;;;5001134;28;20192;-80
2023/08/20 08:01:54;;;;;;;9.48;8.00;;;29.10;57.90;;;;;;4999801;28;20311;-81
2023/08/20 08:04:21;;;;;;;8.60;7.93;;;29.10;58.00;;;;;;5001214;28;20232;-81
2023/08/20 08:06:48;;;;;;;9.05;8.23;;;29.10;58.40;;;;;;4999977;28;20209;-82
2023/08/20 08:09:22;;;;;;;8.75;7.95;;;29.10;58.30;;;;;;4998719;28;20223;-82
2023/08/20 08:11:49;;;;;;;9.10;8.25;;;29.20;57.80;;;;;;4999425;28;20226;-82
2023/08/20 08:14:16;;;;;;;8.73;8.02;;;29.20;58.30;;;;;;4999612;28;20203;-84
2023/08/20 08:16:44;;;;;;;9.25;8.20;;;29.20;58.20;;;;;;4998002;28;20250;-84
2023/08/20 08:19:12;;;;;;;19.52;12.10;;;29.30;58.20;;;;;;4998435;28;20571;-84
2023/08/20 08:21:39;;;;;;;22.20;15.10;;;29.40;58.10;;;;;;4998839;28;20231;-84
2023/08/20 08:24:06;;;;;;;51.97;30.83;;;29.40;57.70;;;;;;5015121;28;20603;-85
2023/08/20 08:26:34;;;;;;;50.55;32.95;;;29.50;58.00;;;;;;4999610;28;20196;-84
2023/08/20 08:29:01;;;;;;;41.90;25.85;;;29.60;57.40;;;;;;4999421;28;20207;-84
2023/08/20 08:31:29;;;;;;;39.63;26.17;;;29.60;56.80;;;;;;5001044;28;20222;-84
2023/08/20 08:33:56;;;;;;;42.83;28.58;;;29.70;56.90;;;;;;5001165;28;20199;-83
2023/08/20 08:36:25;;;;;;;50.13;27.15;;;29.80;56.60;;;;;;5000320;28;20290;-84
2023/08/20 08:38:52;;;;;;;36.15;24.55;;;29.80;56.80;;;;;;5001521;28;20204;-84
2023/08/20 08:41:21;;;;;;;38.35;24.70;;;29.80;56.70;;;;;;4982888;28;20228;-84
2023/08/20 08:43:48;;;;;;;37.65;23.30;;;29.80;56.90;;;;;;4997597;28;20222;-84
2023/08/20 08:46:15;;;;;;;35.38;22.73;;;29.80;56.50;;;;;;4998052;28;20629;-84
2023/08/20 08:48:43;;;;;;;31.15;20.95;;;29.80;56.70;;;;;;4997951;28;20518;-84
2023/08/20 08:51:10;;;;;;;26.45;20.08;;;29.80;56.50;;;;;;4998039;28;20224;-84
2023/08/20 08:53:39;;;;;;;31.40;19.90;;;29.90;56.50;;;;;;4998202;28;20207;-84
2023/08/20 08:56:06;;;;;;;27.83;19.65;;;29.90;56.20;;;;;;4998002;28;20196;-84
2023/08/20 08:58:33;;;;;;;32.53;18.48;;;30.00;56.10;;;;;;4997489;28;20196;-84
2023/08/20 09:01:00;;;;;;;26.77;17.88;;;30.00;55.80;;;;;;4998395;28;20320;-84
2023/08/20 09:03:26;;;;;;;24.30;15.88;;;30.10;55.80;;;;;;4999294;28;20211;-84
2023/08/20 09:05:55;;;;;;;25.73;16.55;;;30.20;55.80;;;;;;5001980;28;20204;-84
2023/08/20 09:08:23;;;;;;;18.52;14.60;;;30.20;55.60;;;;;;4999108;28;20200;-84
2023/08/20 09:10:52;;;;;;;23.63;14.38;;;30.20;55.50;;;;;;4999564;28;20216;-82
2023/08/20 09:13:23;;;;;;;22.42;13.35;;;30.20;55.40;;;;;;5001613;28;20733;-82
2023/08/20 09:15:52;;;;;;;21.42;13.25;;;30.30;55.30;;;;;;5001636;28;20200;-82
2023/08/20 09:18:18;;;;;;;19.35;12.93;;;30.30;55.20;;;;;;5001374;28;20205;-82
2023/08/20 09:20:46;;;;;;;17.70;12.48;;;30.30;55.20;;;;;;5000348;28;20251;-82
2023/08/20 09:23:13;;;;;;;17.08;12.30;;;30.20;55.30;;;;;;5004216;28;20235;-82
2023/08/20 09:25:40;;;;;;;18.73;11.48;;;30.20;55.30;;;;;;5004845;28;20258;-82
2023/08/20 09:28:09;;;;;;;14.50;10.90;;;30.20;55.30;;;;;;5005178;28;20284;-82
2023/08/20 09:30:36;;;;;;;14.52;10.95;;;30.20;55.10;;;;;;5002878;28;20572;-82
2023/08/20 09:33:09;;;;;;;12.88;10.70;;;30.20;55.60;;;;;;5004694;28;20196;-82
2023/08/20 09:35:36;;;;;;;15.57;11.02;;;30.20;55.40;;;;;;5004283;28;20202;-82
2023/08/20 09:38:04;;;;;;;11.90;10.23;;;30.20;55.20;;;;;;4987468;28;20266;-82
2023/08/20 09:40:31;;;;;;;12.55;10.73;;;30.20;55.20;;;;;;5005374;28;20312;-82
2023/08/20 09:42:59;;;;;;;11.35;10.20;;;30.20;55.70;;;;;;5003238;28;20196;-82
2023/08/20 09:45:28;;;;;;;12.35;9.95;;;30.20;55.30;;;;;;5004159;28;20220;-82
2023/08/20 09:47:56;;;;;;;12.00;9.30;;;30.20;55.20;;;;;;5014113;28;20206;-83
2023/08/20 09:50:24;;;;;;;10.95;8.95;;;30.20;55.10;;;;;;5023784;28;20240;-83
2023/08/20 09:52:57;;;;;;;11.15;9.85;;;30.20;55.40;;;;;;5023379;28;20203;-83
2023/08/20 09:55:24;;;;;;;13.47;10.30;;;30.20;55.30;;;;;;5000281;28;20453;-83
2023/08/20 09:57:51;;;;;;;10.68;9.43;;;30.10;55.40;;;;;;5000913;28;20447;-83
2023/08/20 10:00:18;;;;;;;12.20;9.75;;;30.10;55.40;;;;;;5001156;28;20223;-83
2023/08/20 10:02:47;;;;;;;10.43;9.20;;;30.10;55.80;;;;;;5000631;28;20228;-83
2023/08/20 10:05:15;;;;;;;10.23;9.00;;;30.10;56.00;;;;;;5003263;28;20223;-83
2023/08/20 10:07:42;;;;;;;11.77;9.27;;;30.10;56.30;;;;;;5001691;28;20278;-83
2023/08/20 10:10:11;;;;;;;10.38;9.27;;;30.10;55.90;;;;;;5001570;28;20234;-83
2023/08/20 10:12:39;;;;;;;9.45;8.55;;;30.10;56.30;;;;;;5003195;28;20250;-83
2023/08/20 10:15:08;;;;;;;9.10;8.25;;;30.10;56.70;;;;;;5002745;28;20284;-82
2023/08/20 10:17:35;;;;;;;9.65;8.48;;;30.10;56.10;;;;;;5002274;28;20200;-82
2023/08/20 10:20:04;;;;;;;11.77;8.25;;;30.10;55.90;;;;;;5002248;28;20650;-83
2023/08/20 10:22:34;;;;;;;9.40;8.32;;;30.00;56.10;;;;;;5002344;28;20207;-83
2023/08/20 10:25:02;;;;;;;8.95;8.15;;;30.00;55.90;;;;;;5004984;28;20270;-82
2023/08/20 10:27:32;;;;;;;9.05;8.20;;;30.00;55.90;;;;;;5001655;28;20623;-83
2023/08/20 10:29:59;;;;;;;9.10;8.30;;;30.00;56.80;;;;;;5001905;28;20200;-83
2023/08/20 10:32:44;;;;;;;9.10;8.20;;;29.90;55.90;;;;;;5001300;28;20204;-83
2023/08/20 10:35:12;;;;;;;9.27;8.35;;;29.90;55.80;;;;;;5001128;28;20200;-83
2023/08/20 10:37:40;;;;;;;9.25;8.35;;;29.90;56.20;;;;;;4999980;28;20200;-83
2023/08/20 10:40:08;;;;;;;8.57;7.80;;;29.90;56.20;;;;;;4999577;28;20629;-82
2023/08/20 10:42:42;;;;;;;8.85;7.85;;;29.90;55.80;;;;;;4999530;28;20204;-83
2023/08/20 10:45:09;;;;;;;8.05;7.30;;;29.80;56.20;;;;;;4999704;28;20228;-83
2023/08/20 10:47:38;;;;;;;8.93;8.02;;;29.80;56.20;;;;;;4999537;28;20200;-83
2023/08/20 10:50:06;;;;;;;9.95;7.28;;;29.90;55.90;;;;;;4999392;28;20250;-83
2023/08/20 10:52:38;;;;;;;8.15;7.38;;;29.90;55.70;;;;;;5000368;28;20222;-83
2023/08/20 10:55:06;;;;;;;8.10;7.30;;;29.90;55.20;;;;;;5001848;28;20195;-83
2023/08/20 10:57:36;;;;;;;8.45;7.22;;;29.90;55.00;;;;;;4986275;28;20673;-82
2023/08/20 11:00:09;;;;;;;8.13;7.43;;;29.90;55.20;;;;;;5001236;28;20200;-82
2023/08/20 11:02:36;;;;;;;8.10;7.40;;;29.90;55.30;;;;;;4984982;28;20204;-82
2023/08/20 11:05:04;;;;;;;9.45;7.65;;;29.80;55.40;;;;;;4999230;28;20765;-82
2023/08/20 11:07:31;;;;;;;8.07;7.30;;;29.80;55.60;;;;;;5000532;28;20268;-82
2023/08/20 11:09:59;;;;;;;8.25;6.97;;;29.80;55.80;;;;;;5008046;28;20204;-83
2023/08/20 11:12:26;;;;;;;8.48;7.68;;;29.80;55.80;;;;;;4985329;28;20200;-83
2023/08/20 11:14:53;;;;;;;7.80;7.20;;;29.80;56.00;;;;;;5000535;28;20196;-82
2023/08/20 11:17:20;;;;;;;7.95;7.20;;;29.80;55.80;;;;;;4999498;28;20288;-82
2023/08/20 11:19:47;;;;;;;8.15;7.35;;;29.70;56.00;;;;;;5000131;28;20219;-82
2023/08/20 11:22:15;;;;;;;7.88;7.28;;;29.70;56.00;;;;;;4999379;28;20224;-82
2023/08/20 11:24:43;;;;;;;7.72;6.97;;;29.70;56.00;;;;;;4999418;28;20234;-82
2023/08/20 11:27:12;;;;;;;8.13;7.32;;;29.70;56.10;;;;;;4999547;28;20198;-82
2023/08/20 11:29:42;;;;;;;7.65;7.00;;;29.70;56.20;;;;;;4999923;28;20305;-82
2023/08/20 11:32:10;;;;;;;7.93;7.00;;;29.60;56.40;;;;;;4999149;28;20577;-82
2023/08/20 11:34:39;;;;;;;8.25;7.47;;;29.60;56.50;;;;;;4998547;28;20263;-82
2023/08/20 11:37:06;;;;;;;7.13;6.50;;;29.60;56.50;;;;;;4998972;28;20247;-83
2023/08/20 11:39:33;;;;;;;7.53;6.93;;;29.60;56.80;;;;;;4983186;28;20669;-83
2023/08/20 11:42:01;;;;;;;7.60;7.00;;;29.50;56.70;;;;;;5002525;28;20220;-83
2023/08/20 11:44:30;;;;;;;8.10;7.30;;;29.50;56.70;;;;;;5003655;28;20254;-83
2023/08/20 11:46:57;;;;;;;8.13;7.18;;;29.50;56.90;;;;;;5000639;28;20196;-83
2023/08/20 11:49:30;;;;;;;7.97;7.25;;;29.50;56.90;;;;;;5001588;28;20207;-82
2023/08/20 11:51:57;;;;;;;7.88;7.00;;;29.50;56.90;;;;;;4985328;28;20223;-82
2023/08/20 11:54:25;;;;;;;7.82;7.10;;;29.50;56.90;;;;;;5001968;28;20196;-82
2023/08/20 11:56:53;;;;;;;7.88;7.18;;;29.50;56.90;;;;;;4999022;28;20295;-83
2023/08/20 11:59:21;;;;;;;7.75;6.90;;;29.50;57.10;;;;;;4999032;28;20207;-82
2023/08/20 12:01:52;;;;;;;6.95;6.35;;;29.50;57.10;;;;;;5000779;28;20219;-83
2023/08/20 12:04:19;;;;;;;8.27;7.55;;;29.40;57.20;;;;;;4986924;28;20203;-83
2023/08/20 12:06:46;;;;;;;7.75;6.90;;;29.40;57.20;;;;;;5001998;28;20550;-83
2023/08/20 12:09:21;;;;;;;7.38;6.72;;;29.50;57.40;;;;;;5001012;28;20717;-82
2023/08/20 12:11:50;;;;;;;7.50;6.90;;;29.40;57.40;;;;;;5002494;28;20277;-83
2023/08/20 12:14:17;;;;;;;7.78;6.75;;;29.40;57.40;;;;;;5002684;28;20204;-83
2023/08/20 12:16:44;;;;;;;7.25;6.63;;;29.40;57.50;;;;;;5004318;28;20208;-83
2023/08/20 12:19:13;;;;;;;7.50;6.57;;;29.40;57.50;;;;;;4986245;28;20263;-82
2023/08/20 12:21:41;;;;;;;7.63;6.93;;;29.30;57.50;;;;;;5001530;28;20311;-83
2023/08/20 12:24:09;;;;;;;7.32;6.63;;;29.30;57.50;;;;;;5003068;28;20207;-82
2023/08/20 12:26:36;;;;;;;6.90;6.30;;;29.30;57.70;;;;;;5001760;28;20196;-82
2023/08/20 12:29:04;;;;;;;7.20;6.60;;;29.20;57.90;;;;;;5001799;28;20200;-83
2023/08/20 12:31:32;;;;;;;7.55;6.90;;;29.20;58.70;;;;;;5002734;28;20231;-83
2023/08/20 12:33:59;;;;;;;7.03;6.40;;;29.20;58.10;;;;;;5002693;28;20204;-83
2023/08/20 12:36:28;;;;;;;7.65;6.85;;;29.20;58.20;;;;;;5001422;28;20302;-83
2023/08/20 12:38:56;;;;;;;9.73;6.90;;;29.20;58.20;;;;;;5002230;28;20225;-82
2023/08/20 12:41:23;;;;;;;7.30;6.57;;;29.20;58.20;;;;;;5002811;28;20693;-82
2023/08/20 12:43:50;;;;;;;7.82;6.55;;;29.20;58.10;;;;;;5005150;28;20204;-82
2023/08/20 12:46:18;;;;;;;7.50;6.57;;;29.20;58.10;;;;;;5005071;28;20231;-83
2023/08/20 12:48:44;;;;;;;6.93;6.32;;;29.20;58.10;;;;;;5003214;28;20222;-83